NZQN METAR and TAF | Updated Today

NZQN METAR

Queenstown International Airport

Queenstown International Airport (NZQN) hasn't published a METAR.
We found the following current weather conditions for Lower Shotover from other sources.

Queenstown International Airport (NZQN) METAR

  • Weather conditions right now at NZQN:
  • Present conditions: Clouds
  • Clouds: Few clouds
  • Cloud cover: 14%
  • Wind: 169 at 3kts
  • Temperature: 1.4 celsius
  • Feels like: 0.1 celsius
  • Pressure: 1028mb
  • Humidity: 88%


Useful to know...

NZQN TAF

Queenstown International Airport

TAF NZQN 251707Z 2518/2612 04005KT 9999 FEW020 SCT040 BECMG 2600/2602 25010KT BECMG 2606/2608 04005KT
Observation time: 1:42 hr. ago
Need help? Read our tutorial on how to read TAFs or read the parsed version below.

Parsed version of TAF for Queenstown International Airport (NZQN)

  • From 25 May at 18:00 UTC, to day 26 of the month at 12:00 UTC
  • Clouds: A few at 610 meters; scattered at 1219 meters
  • Visibility: Greater than 10 km
  • Wind: 40 degrees at 5
  • Expected to arise soon, from 26 May at 00:00 UTC, to day 26 of the month at 02:00 UTC
  • Wind: 250 degrees at 10
  • Expected to arise soon, from 26 May at 06:00 UTC, to day 26 of the month at 08:00 UTC
  • Wind: 40 degrees at 5

Airports near NZQN

NZMF Weather
Region:

Milford Sound Airport

Not found in our database